New Castle Airport Wilmington US
ICAO: KILG
IATA: ILG
Category: Medium
Scheduled Services: Yes

Elevation: 80 ft
TransAlt. 18000 ft.

Airport Communications:
PHILADELPHIA APP/DEP:118.35
ATIS:123.95
CLNC DEL:119.95
CTAF:126
GND:121.7
ARNG OPS:46.9
WILMINGTON COMD POST:34.3
MILLVILLE RDO:114
WILMINGTON TWR:126
UNICOM:122.95

KILG Zoom In..

If you have problems with the map follow the link
https://www.worldairports.se/pages/airport.php?
ICAO=KILG

Runways:

(A) RW 01 length 7012 ft width 150 ft
ILS 110.30 / hdg 15

(B) RW 09 length 7275 ft width 150 ft
---- / hdg 88

(C) RW 14 length 4602 ft width 150 ft
---- / hdg 141

(D) RW 19 length 7012 ft width 150 ft
---- / hdg 195

(E) RW 27 length 7275 ft width 150 ft
---- / hdg 268

(F) RW 32 length 4602 ft width 150 ft
---- / hdg 321

Location; KILG
Day. 08 / Time. 11.51 Zulu
* Altimeter: 30.54
* Temperature: -05° c. -23°f.
* Wind from: 000° Speed 00 kn.
Dewpoint: -07° c.
Visibility: 9 Statute Miles.
Clouds: Clear (automated report).

KILG 081151Z 00000KT 9SM CLR M05/M07 A3054 RMK AO2 SLP342 T10501072 11017 21056 53003


Wind - Calm.

 
 
jpsmedia worldairports.se 2019   terms of use